Time;durP1;ratioP1;P1;durP2;ratioP2;P2;SDS_P1;SDS_P2;PMS_P1;PMS_P2;Temp;Humidity;BMP_temperature;BMP_pressure;BME280_temperature;BME280_humidity;BME280_pressure;Samples;Min_cycle;Max_cycle;Signal;HPM_P1;HPM_P2
2022/09/14 00:00:47;;;;;;;7.70;3.07;;;;;;;15.16;100.00;100759.16;5067928;28;20033;-89
2022/09/14 00:03:13;;;;;;;11.00;3.20;;;;;;;15.13;100.00;100752.47;5068433;28;20035;-89
2022/09/14 00:05:38;;;;;;;11.73;3.37;;;;;;;15.16;100.00;100747.59;5048090;28;20029;-89
2022/09/14 00:08:03;;;;;;;10.50;3.13;;;;;;;15.09;100.00;100742.56;5042760;28;20291;-89
2022/09/14 00:10:29;;;;;;;9.20;3.10;;;;;;;14.91;100.00;100717.94;5053352;28;20021;-89
2022/09/14 00:12:54;;;;;;;10.33;3.10;;;;;;;15.03;100.00;100743.69;5052253;28;20021;-88
2022/09/14 00:15:19;;;;;;;7.22;3.10;;;;;;;14.83;100.00;100708.63;5053114;28;20025;-88
2022/09/14 00:17:45;;;;;;;11.77;3.53;;;;;;;14.98;100.00;100728.38;5052944;28;20036;-89
2022/09/14 00:20:10;;;;;;;15.67;3.17;;;;;;;14.87;100.00;100710.72;5051752;28;20025;-89
2022/09/14 00:22:36;;;;;;;9.10;3.50;;;;;;;14.80;100.00;100717.28;5036315;28;20030;-89
2022/09/14 00:25:01;;;;;;;7.90;2.67;;;;;;;14.68;100.00;100704.19;5032617;28;20064;-89
2022/09/14 00:27:26;;;;;;;8.87;3.10;;;;;;;14.46;100.00;100693.09;5032715;28;20492;-90
2022/09/14 00:29:51;;;;;;;9.73;2.93;;;;;;;14.47;100.00;100697.41;5031971;28;20295;-89
2022/09/14 00:39:55;;;;;;;8.97;3.10;;;;;;;14.43;100.00;100689.09;5029099;28;20056;-89
2022/09/14 00:42:20;;;;;;;10.87;3.77;;;;;;;14.63;100.00;100709.63;5030928;28;20280;-89
2022/09/14 00:44:45;;;;;;;12.73;3.77;;;;;;;14.67;100.00;100709.88;5032224;28;20025;-89
2022/09/14 00:47:12;;;;;;;8.40;3.47;;;;;;;14.63;100.00;100698.84;5030644;28;20026;-89
2022/09/14 00:49:39;;;;;;;10.93;3.92;;;;;;;14.61;100.00;100694.81;5029919;28;20057;-89
2022/09/14 00:52:07;;;;;;;12.93;4.13;;;;;;;14.53;100.00;100680.09;5031555;28;20038;-89
2022/09/14 00:54:47;;;;;;;9.95;3.95;;;;;;;14.46;100.00;100676.94;5029470;28;20033;-90
2022/09/14 00:57:14;;;;;;;13.15;4.20;;;;;;;14.44;100.00;100663.75;5031380;28;20033;-89
2022/09/14 00:59:41;;;;;;;11.93;4.27;;;;;;;14.38;100.00;100664.88;5031836;28;20515;-90
2022/09/14 01:02:09;;;;;;;14.03;4.43;;;;;;;14.13;100.00;100620.19;5036468;22;20666;-89
2022/09/14 01:04:48;;;;;;;15.18;4.55;;;;;;;14.46;100.00;100672.34;5037133;28;20495;-89
2022/09/14 01:07:50;;;;;;;10.80;4.22;;;;;;;14.48;100.00;100669.34;5031484;28;20029;-89
2022/09/14 01:11:15;;;;;;;22.98;4.70;;;;;;;14.13;100.00;100618.28;5027767;28;20037;-90
2022/09/14 01:14:03;;;;;;;13.80;4.13;;;;;;;14.37;100.00;100649.81;5001516;28;20052;-89
2022/09/14 01:17:05;;;;;;;13.32;4.47;;;;;;;14.44;100.00;100655.66;5030870;28;20570;-90
2022/09/14 01:20:24;;;;;;;10.68;4.00;;;;;;;14.36;100.00;100648.19;5030361;28;20061;-89
2022/09/14 01:23:40;;;;;;;11.15;4.10;;;;;;;14.01;100.00;100618.69;5031391;28;20028;-90
2022/09/14 01:26:25;;;;;;;14.23;3.95;;;;;;;14.16;100.00;100649.25;4999307;28;20128;-90
2022/09/14 01:29:24;;;;;;;10.37;3.90;;;;;;;13.93;100.00;100619.31;5012047;28;20516;-90
2022/09/14 01:32:26;;;;;;;7.93;4.13;;;;;;;13.91;100.00;100624.16;5012827;28;20280;-90
2022/09/14 01:35:21;;;;;;;17.23;4.15;;;;;;;14.01;100.00;100639.41;5052121;28;20026;-89
2022/09/14 01:38:27;;;;;;;10.63;3.90;;;;;;;14.13;100.00;100658.72;5023741;28;20046;-90
2022/09/14 02:02:19;;;;;;;20.07;3.53;;;;;;;13.93;100.00;100638.16;4990391;22;20300;-90
2022/09/14 02:04:51;;;;;;;15.30;3.92;;;;;;;13.87;100.00;100623.16;5027370;28;20036;-90
2022/09/14 02:07:29;;;;;;;;;;;;;;;;;;;;;
2022/09/14 02:10:31;;;;;;;10.95;3.80;;;;;;;13.97;100.00;100635.72;4970492;28;20051;-90
2022/09/14 02:17:11;;;;;;;10.65;3.47;;;;;;;13.88;100.00;100639.03;4951952;28;20046;-89
2022/09/14 02:20:34;;;;;;;8.57;3.67;;;;;;;13.96;100.00;100642.97;4932528;29;20440;-90
2022/09/14 02:24:06;;;;;;;14.52;3.47;;;;;;;13.61;100.00;100604.53;4875945;29;20128;-89
2022/09/14 02:29:40;;;;;;;19.10;3.63;;;;;;;13.80;100.00;100634.25;4824539;29;20045;-89
2022/09/14 02:33:07;;;;;;;13.30;3.60;;;;;;;13.77;100.00;100650.97;4896718;29;20309;-90
2022/09/14 02:35:48;;;;;;;16.02;3.45;;;;;;;13.58;100.00;100621.25;4950826;28;20039;-90
2022/09/14 02:38:55;;;;;;;10.73;3.10;;;;;;;13.72;100.00;100643.72;4938279;29;20042;-89
2022/09/14 02:41:54;;;;;;;10.50;3.33;;;;;;;13.77;100.00;100640.22;4983376;28;20042;-89
2022/09/14 02:44:42;;;;;;;9.90;3.93;;;;;;;13.76;100.00;100633.22;5035743;28;20315;-90
2022/09/14 02:47:21;;;;;;;10.25;3.50;;;;;;;13.74;100.00;100630.00;5034164;28;20026;-90
2022/09/14 02:50:39;;;;;;;10.75;3.45;;;;;;;13.70;100.00;100639.72;5051407;28;20025;-89
2022/09/14 02:53:24;;;;;;;12.63;3.50;;;;;;;13.68;100.00;100641.91;5023244;28;20018;-88
2022/09/14 02:55:57;;;;;;;13.10;3.67;;;;;;;13.63;100.00;100634.69;5056191;28;20009;-89
2022/09/14 02:58:23;;;;;;;16.95;3.80;;;;;;;13.68;100.00;100626.56;5054518;28;20016;-90
2022/09/14 03:00:49;;;;;;;12.23;4.20;;;;;;;13.73;100.00;100628.41;5056669;28;20030;-88
2022/09/14 03:03:19;;;;;;;12.05;4.03;;;;;;;13.75;100.00;100629.72;5029588;28;20026;-89
2022/09/14 03:05:44;;;;;;;11.55;4.15;;;;;;;13.77;100.00;100627.53;5049907;28;20029;-90
2022/09/14 03:08:16;;;;;;;18.23;4.15;;;;;;;13.72;100.00;100616.03;5036711;28;20516;-89
2022/09/14 03:10:54;;;;;;;12.63;4.07;;;;;;;13.50;100.00;100576.13;5036252;28;20052;-89
2022/09/14 03:13:19;;;;;;;10.47;4.50;;;;;;;13.70;100.00;100600.13;5017668;28;20885;-89
2022/09/14 03:15:45;;;;;;;16.30;4.40;;;;;;;13.72;100.00;100594.47;5035712;28;20029;-90
2022/09/14 03:21:32;;;;;;;9.02;3.95;;;;;;;13.67;100.00;100595.34;5032815;28;20163;-90
2022/09/14 03:24:17;;;;;;;11.30;3.95;;;;;;;13.73;100.00;100618.41;5035799;28;20044;-90
2022/09/14 03:26:42;;;;;;;12.13;4.13;;;;;;;13.58;100.00;100586.25;5016886;28;20017;-92
2022/09/14 03:29:35;;;;;;;10.33;3.73;;;;;;;13.70;100.00;100608.22;5034137;28;20030;-90
2022/09/14 03:32:11;;;;;;;13.98;4.35;;;;;;;13.51;100.00;100577.72;5052586;22;20045;-90
2022/09/14 03:34:57;;;;;;;;;;;;;;;;;;;;;
2022/09/14 03:37:39;;;;;;;9.30;4.03;;;;;;;13.51;100.00;100573.13;5031010;28;20039;-90
2022/09/14 03:51:00;;;;;;;10.50;3.70;;;;;;;13.33;100.00;100534.22;5013295;28;20572;-90
2022/09/14 03:58:36;;;;;;;8.30;4.00;;;;;;;13.32;100.00;100565.72;5011651;28;20331;-90
2022/09/14 04:01:26;;;;;;;;;;;;;;;;;;;;;
2022/09/14 04:03:52;;;;;;;12.13;3.80;;;;;;;13.45;100.00;100579.63;5011133;28;20466;-90
2022/09/14 04:06:18;;;;;;;9.57;3.93;;;;;;;13.27;100.00;100546.16;5013868;28;20097;-90
2022/09/14 04:08:47;;;;;;;11.38;3.67;;;;;;;13.33;100.00;100553.88;5009909;28;20034;-91
2022/09/14 04:11:22;;;;;;;10.98;3.95;;;;;;;13.10;100.00;100525.03;5008567;28;20581;-90
2022/09/14 04:16:39;;;;;;;11.60;3.75;;;;;;;13.17;100.00;100547.03;5081430;22;20515;-89
2022/09/14 04:19:05;;;;;;;9.23;3.58;;;;;;;13.28;100.00;100558.50;5032647;28;20155;-87
2022/09/14 04:21:31;;;;;;;10.63;3.67;;;;;;;13.32;100.00;100565.72;5037197;28;20468;-89
2022/09/14 04:23:57;;;;;;;9.37;3.77;;;;;;;13.33;100.00;100569.22;5050422;28;20032;-89
2022/09/14 04:26:25;;;;;;;9.68;3.55;;;;;;;13.23;100.00;100558.56;5052242;28;20507;-89
2022/09/14 04:28:51;;;;;;;13.40;3.75;;;;;;;13.28;100.00;100569.28;5052343;28;20119;-89
2022/09/14 04:31:16;;;;;;;13.63;3.88;;;;;;;13.28;100.00;100556.63;5051956;28;20031;-89
2022/09/14 04:33:42;;;;;;;10.20;3.47;;;;;;;13.32;100.00;100559.56;5051349;28;20041;-90
2022/09/14 04:36:11;;;;;;;10.98;3.55;;;;;;;13.23;100.00;100537.84;5052511;28;20052;-90
2022/09/14 04:38:37;;;;;;;11.15;3.10;;;;;;;13.26;100.00;100555.31;5048557;28;20387;-90
2022/09/14 04:41:19;;;;;;;11.95;3.28;;;;;;;13.16;100.00;100540.84;5049309;28;20548;-90
2022/09/14 04:43:53;;;;;;;9.57;3.30;;;;;;;13.21;100.00;100550.78;5052464;28;20033;-90
2022/09/14 04:46:24;;;;;;;12.83;3.70;;;;;;;13.15;100.00;100559.97;5051555;28;20272;-89
2022/09/14 04:48:50;;;;;;;11.57;3.80;;;;;;;13.10;100.00;100551.94;5036152;28;20112;-89
2022/09/14 04:51:22;;;;;;;14.45;4.50;;;;;;;13.11;100.00;100548.97;5050955;28;20057;-89
2022/09/14 04:53:51;;;;;;;13.32;5.53;;;;;;;13.03;100.00;100542.31;5050832;28;20041;-89
2022/09/14 04:56:19;;;;;;;12.75;4.75;;;;;;;13.14;100.00;100548.41;5052297;28;20438;-90
2022/09/14 04:58:47;;;;;;;8.20;4.77;;;;;;;13.16;100.00;100546.22;5053867;28;20558;-89
2022/09/14 05:01:15;;;;;;;11.03;4.60;;;;;;;13.15;100.00;100528.47;5052204;28;20267;-88
2022/09/14 05:03:41;;;;;;;14.73;3.75;;;;;;;13.14;100.00;100529.59;5052538;28;20029;-90
2022/09/14 05:06:10;;;;;;;10.30;3.30;;;;;;;13.10;100.00;100520.47;5051776;28;20039;-89
2022/09/14 05:08:37;;;;;;;9.77;3.60;;;;;;;13.08;100.00;100525.31;5050935;28;20487;-90
2022/09/14 05:11:04;;;;;;;10.88;3.25;;;;;;;13.06;100.00;100527.50;5031031;28;20044;-89
2022/09/14 05:13:29;;;;;;;8.73;3.50;;;;;;;12.83;100.00;100484.09;5031508;28;20037;-89
2022/09/14 05:16:03;;;;;;;11.93;3.47;;;;;;;13.10;100.00;100520.47;5031220;28;20037;-89
2022/09/14 05:18:29;;;;;;;11.95;3.60;;;;;;;13.02;100.00;100508.44;5031571;28;20079;-90
2022/09/14 05:20:55;;;;;;;10.05;3.33;;;;;;;13.10;100.00;100522.34;5030942;28;20030;-90
2022/09/14 05:23:23;;;;;;;11.00;3.20;;;;;;;13.01;100.00;100516.75;5031658;28;20029;-90
2022/09/14 05:26:00;;;;;;;9.73;4.03;;;;;;;13.07;100.00;100521.03;5029789;28;20116;-90
2022/09/14 05:28:27;;;;;;;9.40;3.70;;;;;;;12.92;100.00;100499.63;5042312;28;20154;-89
2022/09/14 05:30:54;;;;;;;15.47;4.00;;;;;;;12.98;100.00;100517.31;5036810;28;20170;-89
2022/09/14 05:33:20;;;;;;;6.50;3.60;;;;;;;13.06;100.00;100523.97;5051452;28;20283;-90
2022/09/14 05:35:47;;;;;;;15.98;4.10;;;;;;;12.94;100.00;100489.41;5050321;28;20037;-91
2022/09/14 05:38:14;;;;;;;9.57;3.70;;;;;;;13.22;100.00;100535.41;5052469;28;20078;-87
2022/09/14 05:40:42;;;;;;;6.57;3.55;;;;;;;13.23;100.00;100540.53;5047407;28;20127;-85
2022/09/14 05:43:08;;;;;;;10.15;3.85;;;;;;;13.23;100.00;100539.72;5038130;28;20032;-85
2022/09/14 05:45:34;;;;;;;7.43;3.15;;;;;;;13.18;100.00;100538.66;5040430;28;20380;-84
2022/09/14 05:48:03;;;;;;;13.13;3.50;;;;;;;13.22;100.00;100538.09;5031017;28;20032;-85
2022/09/14 05:50:36;;;;;;;14.57;3.88;;;;;;;13.17;100.00;100545.13;5039404;28;20030;-85
2022/09/14 05:53:01;;;;;;;12.75;3.65;;;;;;;12.90;100.00;100510.66;5058049;22;20088;-87
2022/09/14 05:55:33;;;;;;;14.27;3.90;;;;;;;12.93;100.00;100507.41;5020780;28;20014;-85
2022/09/14 05:57:58;;;;;;;14.88;4.25;;;;;;;13.18;100.00;100533.28;5018946;28;20044;-84
2022/09/14 06:00:24;;;;;;;10.43;4.23;;;;;;;13.27;100.00;100546.16;5012502;28;20022;-85
2022/09/14 06:02:51;;;;;;;12.70;3.97;;;;;;;13.30;100.00;100545.59;5008672;28;20029;-85
2022/09/14 06:05:17;;;;;;;11.48;3.97;;;;;;;13.21;100.00;100536.50;5010779;28;20028;-85
2022/09/14 06:07:43;;;;;;;10.17;3.80;;;;;;;13.28;100.00;100547.75;5009852;28;20116;-85
2022/09/14 06:10:09;;;;;;;11.38;4.30;;;;;;;13.28;100.00;100553.94;5026684;28;20529;-85
2022/09/14 06:12:35;;;;;;;10.52;4.15;;;;;;;13.28;100.00;100558.50;5030066;28;20022;-84
2022/09/14 06:15:01;;;;;;;15.93;4.00;;;;;;;13.21;100.00;100552.66;5023965;28;20025;-83
2022/09/14 06:17:30;;;;;;;8.93;3.28;;;;;;;13.14;100.00;100559.19;5014198;28;20026;-84
2022/09/14 06:19:55;;;;;;;15.63;3.50;;;;;;;13.11;100.00;100554.34;5008946;28;20030;-84
2022/09/14 06:22:20;;;;;;;11.13;3.77;;;;;;;13.15;100.00;100562.66;5010671;28;20377;-83
2022/09/14 06:24:46;;;;;;;10.73;4.23;;;;;;;13.16;100.00;100562.34;5030135;28;20033;-85
2022/09/14 06:27:11;;;;;;;7.83;3.60;;;;;;;13.14;100.00;100567.25;5027934;28;20021;-85
2022/09/14 06:29:37;;;;;;;8.35;3.30;;;;;;;13.12;100.00;100564.03;5013430;28;20097;-85
2022/09/14 06:32:02;;;;;;;9.37;3.80;;;;;;;13.13;100.00;100562.13;5029132;28;20026;-84
2022/09/14 06:34:29;;;;;;;10.35;3.88;;;;;;;13.10;100.00;100558.13;5009976;28;20022;-87
2022/09/14 06:36:54;;;;;;;10.43;3.63;;;;;;;13.09;100.00;100551.13;5009082;28;20049;-86
2022/09/14 06:39:20;;;;;;;10.33;3.80;;;;;;;13.00;100.00;100542.88;5023525;28;20796;-85
2022/09/14 06:41:45;;;;;;;9.60;3.73;;;;;;;13.10;100.00;100543.84;5028260;28;20060;-85
2022/09/14 06:44:10;;;;;;;12.23;4.10;;;;;;;13.14;100.00;100543.03;5025174;28;20100;-85
2022/09/14 06:46:46;;;;;;;14.43;3.87;;;;;;;13.14;100.00;100551.09;5025669;28;20025;-86
2022/09/14 06:55:27;;;;;;;17.15;4.65;;;;;;;13.02;100.00;100507.59;5038126;22;20046;-86
2022/09/14 06:57:53;;;;;;;12.27;4.03;;;;;;;12.94;100.00;100489.41;5026951;28;20037;-86
2022/09/14 07:00:18;;;;;;;10.53;4.20;;;;;;;12.91;100.00;100487.28;5026256;28;20116;-86
2022/09/14 07:02:43;;;;;;;11.97;4.00;;;;;;;13.13;100.00;100519.09;5027366;28;20032;-86
2022/09/14 07:05:09;;;;;;;8.53;3.83;;;;;;;13.11;100.00;100527.44;5028534;28;20045;-85
2022/09/14 07:07:40;;;;;;;10.00;3.60;;;;;;;13.10;100.00;100520.47;5027607;28;20041;-85
2022/09/14 07:10:15;;;;;;;10.10;3.78;;;;;;;12.95;100.00;100491.81;5011171;28;20163;-85
2022/09/14 07:12:48;;;;;;;12.60;4.40;;;;;;;13.05;100.00;100515.13;5028936;28;20147;-87
2022/09/14 07:15:25;;;;;;;9.95;4.20;;;;;;;13.16;100.00;100535.47;4999105;28;20516;-86
2022/09/14 07:17:52;;;;;;;11.85;4.07;;;;;;;13.07;100.00;100502.19;5022046;28;20486;-85
2022/09/14 07:20:18;;;;;;;16.52;4.32;;;;;;;13.27;100.00;100522.72;5012212;28;20596;-87
2022/09/14 07:22:43;;;;;;;12.30;4.23;;;;;;;13.15;100.00;100506.16;5030826;28;20026;-87
2022/09/14 07:25:09;;;;;;;13.35;4.18;;;;;;;13.30;100.00;100519.47;5032722;28;20536;-86
2022/09/14 07:27:37;;;;;;;7.50;4.00;;;;;;;13.24;100.00;100514.41;5028840;28;20045;-86
2022/09/14 07:30:04;;;;;;;9.38;4.50;;;;;;;13.26;100.00;100525.69;5023903;28;20102;-85
2022/09/14 07:32:29;;;;;;;11.07;4.55;;;;;;;13.18;100.00;100511.78;5029653;28;20037;-85
2022/09/14 07:34:54;;;;;;;9.90;4.50;;;;;;;13.22;100.00;100511.22;5024715;28;20041;-85
2022/09/14 07:37:23;;;;;;;13.75;4.60;;;;;;;13.30;100.00;100521.38;5030266;28;20025;-87
2022/09/14 07:39:48;;;;;;;12.38;4.82;;;;;;;13.25;100.00;100516.81;5031441;28;20033;-87
2022/09/14 07:42:13;;;;;;;15.00;5.27;;;;;;;13.27;100.00;100514.66;5200859;22;20037;-86
2022/09/14 07:44:39;;;;;;;15.13;5.13;;;;;;;13.26;100.00;100515.72;5032672;28;20595;-86
2022/09/14 07:47:22;;;;;;;9.67;4.93;;;;;;;13.31;100.00;100496.84;5032594;28;20109;-87
2022/09/14 07:50:12;;;;;;;15.68;5.00;;;;;;;13.47;100.00;100524.47;5037272;28;20041;-87
2022/09/14 07:52:40;;;;;;;9.82;4.80;;;;;;;13.46;100.00;100509.41;5052215;28;20025;-87
2022/09/14 07:58:28;;;;;;;13.25;5.40;;;;;;;13.63;100.00;100502.75;5052518;28;20174;-86
2022/09/14 08:01:11;;;;;;;10.68;5.25;;;;;;;13.66;100.00;100504.06;5054841;22;20436;-86
2022/09/14 08:03:40;;;;;;;10.53;5.30;;;;;;;13.71;100.00;100518.28;5030695;28;20029;-87
2022/09/14 08:06:09;;;;;;;9.88;5.20;;;;;;;13.74;100.00;100517.69;5038591;28;20729;-87
2022/09/14 08:08:37;;;;;;;9.63;4.82;;;;;;;13.76;100.00;100517.44;5050943;28;20048;-87
2022/09/14 08:11:11;;;;;;;9.32;4.82;;;;;;;13.67;100.00;100505.69;5051185;28;20032;-87
2022/09/14 08:13:45;;;;;;;11.38;4.43;;;;;;;13.76;100.00;100520.13;5051045;28;20029;-87
2022/09/14 08:16:11;;;;;;;12.80;5.20;;;;;;;13.81;100.00;100516.56;5051471;28;20032;-87
2022/09/14 08:18:37;;;;;;;10.30;5.47;;;;;;;13.82;100.00;100518.16;5028471;28;20028;-87
2022/09/14 08:21:07;;;;;;;8.85;5.05;;;;;;;13.83;100.00;100509.78;5051289;28;20034;-87
2022/09/14 08:23:33;;;;;;;9.18;4.93;;;;;;;13.75;100.00;100513.94;5051415;28;20164;-87
2022/09/14 08:26:07;;;;;;;11.67;5.67;;;;;;;13.76;100.00;100506.66;5051962;28;20032;-87
2022/09/14 08:28:33;;;;;;;14.55;5.55;;;;;;;13.83;100.00;100509.00;5051808;28;20036;-87
2022/09/14 08:31:06;;;;;;;14.07;6.45;;;;;;;13.82;100.00;100510.09;5050437;28;20029;-87
2022/09/14 08:33:33;;;;;;;14.20;6.63;;;;;;;13.87;100.00;100520.81;5051453;28;20074;-87
2022/09/14 08:36:02;;;;;;;15.98;6.55;;;;;;;13.96;100.00;100520.97;5051766;28;20029;-86
2022/09/14 08:38:28;;;;;;;15.52;6.85;;;;;;;14.02;100.00;100517.94;5051961;28;20021;-86
2022/09/14 08:40:54;;;;;;;12.57;7.20;;;;;;;14.04;100.00;100515.75;5058995;28;20025;-87
2022/09/14 08:43:22;;;;;;;14.52;7.47;;;;;;;14.13;100.00;100531.25;5056577;28;20024;-87
2022/09/14 08:45:48;;;;;;;17.52;7.07;;;;;;;14.05;100.00;100511.97;5055770;28;20074;-87
2022/09/14 08:48:28;;;;;;;16.73;7.63;;;;;;;14.10;100.00;100513.78;5036378;28;20076;-87
2022/09/14 08:50:54;;;;;;;13.77;7.27;;;;;;;14.24;100.00;100525.47;5033966;28;20083;-87
2022/09/14 08:53:24;;;;;;;16.87;7.60;;;;;;;14.23;100.00;100525.75;5030849;28;20375;-86
2022/09/14 08:56:01;;;;;;;20.08;7.68;;;;;;;14.27;100.00;100525.97;5040139;28;20025;-87
2022/09/14 08:58:54;;;;;;;19.40;7.45;;;;;;;14.25;100.00;100534.31;5051493;28;20243;-86
2022/09/14 09:01:37;;;;;;;15.57;8.55;;;;;;;14.22;100.00;100521.47;5048848;28;20040;-86
2022/09/14 09:04:41;;;;;;;15.48;7.60;;;;;;;14.24;100.00;100538.13;5051204;28;20482;-87
2022/09/14 09:07:16;;;;;;;13.10;7.97;;;;;;;14.36;100.00;100538.50;5005894;28;20038;-87
2022/09/14 09:09:48;;;;;;;17.13;8.43;;;;;;;14.29;100.00;100531.88;5049958;28;20663;-87
2022/09/14 09:12:35;;;;;;;12.10;7.70;;;;;;;14.29;100.00;100535.34;5050905;28;20029;-86
2022/09/14 09:15:13;;;;;;;18.63;8.82;;;;;;;14.33;100.00;100530.22;5050981;28;20088;-86
2022/09/14 09:17:48;;;;;;;17.25;8.68;;;;;;;14.04;100.00;100493.38;5033953;28;20141;-87
2022/09/14 09:20:21;;;;;;;18.42;7.80;;;;;;;14.21;100.00;100517.94;5030515;28;20749;-86
2022/09/14 09:22:55;;;;;;;13.43;8.43;;;;;;;14.26;100.00;100527.84;5030774;28;20033;-86
2022/09/14 09:25:23;;;;;;;17.83;8.25;;;;;;;14.26;100.00;100517.06;5030987;28;20116;-86
2022/09/14 09:27:53;;;;;;;18.02;8.25;;;;;;;14.22;100.00;100518.75;5030500;28;20037;-86
2022/09/14 09:30:18;;;;;;;13.68;8.18;;;;;;;14.22;100.00;100516.06;5030004;28;20404;-86
2022/09/14 09:32:44;;;;;;;13.77;7.93;;;;;;;14.22;100.00;100529.53;5028729;28;20025;-87
2022/09/14 09:35:28;;;;;;;15.87;8.40;;;;;;;14.27;100.00;100518.69;5030009;28;20025;-86
2022/09/14 09:37:53;;;;;;;14.52;8.50;;;;;;;14.22;100.00;100506.06;5030597;28;20037;-86
2022/09/14 09:40:51;;;;;;;21.27;8.97;;;;;;;14.20;100.00;100499.38;5029888;28;20459;-87
2022/09/14 09:44:09;;;;;;;18.50;8.40;;;;;;;14.31;100.00;100511.63;5030594;28;20031;-86
2022/09/14 09:46:54;;;;;;;20.75;8.43;;;;;;;14.34;100.00;100518.31;5016997;28;20036;-86
2022/09/14 09:49:33;;;;;;;13.88;8.00;;;;;;;14.34;100.00;100508.34;5039806;28;20033;-86
2022/09/14 09:52:25;;;;;;;14.60;8.15;;;;;;;14.43;100.00;100521.16;5049435;28;20078;-86
2022/09/14 09:54:55;;;;;;;14.48;8.05;;;;;;;14.35;100.00;100523.44;5046464;28;20044;-87
2022/09/14 09:57:35;;;;;;;15.73;8.65;;;;;;;14.36;100.00;100527.72;5050114;28;20040;-86
2022/09/14 10:02:35;;;;;;;16.45;8.45;;;;;;;14.36;100.00;100511.56;5552081;22;20393;-86
2022/09/14 10:05:09;;;;;;;14.93;8.10;;;;;;;14.44;100.00;100520.06;5069513;28;20059;-86
2022/09/14 10:07:39;;;;;;;18.67;8.55;;;;;;;14.60;100.00;100521.47;5070169;28;20020;-87
2022/09/14 10:10:10;;;;;;;14.23;8.20;;;;;;;14.52;100.00;100514.03;5068931;28;20033;-86
2022/09/14 10:12:38;;;;;;;17.07;8.17;;;;;;;14.64;100.00;100517.06;5050208;28;20275;-86
2022/09/14 10:15:15;;;;;;;18.15;8.73;;;;;;;14.77;100.00;100526.34;5049520;28;20159;-87
2022/09/14 10:18:06;;;;;;;16.58;8.93;;;;;;;14.96;100.00;100526.34;5050212;28;20087;-86
2022/09/14 10:20:31;;;;;;;16.35;9.40;;;;;;;15.30;100.00;100513.63;5047973;28;20021;-86
2022/09/14 10:23:18;;;;;;;19.00;10.27;;;;;;;15.39;100.00;100511.84;5050196;28;20392;-86
2022/09/14 10:25:45;;;;;;;15.77;10.27;;;;;;;15.48;100.00;100525.47;5048761;28;20027;-86
2022/09/14 10:28:25;;;;;;;19.88;9.70;;;;;;;15.45;100.00;100513.34;5049852;28;20029;-86
2022/09/14 10:31:01;;;;;;;14.30;9.23;;;;;;;15.36;100.00;100511.63;5048105;28;20396;-86
2022/09/14 10:33:28;;;;;;;11.65;8.60;;;;;;;15.31;100.00;100519.84;5050016;28;20410;-86
2022/09/14 10:36:23;;;;;;;11.90;8.93;;;;;;;15.14;100.00;100505.78;5048663;28;20036;-86
2022/09/14 10:38:57;;;;;;;12.82;8.38;;;;;;;14.95;100.00;100505.84;5049543;28;20086;-87
2022/09/14 10:41:40;;;;;;;11.00;8.20;;;;;;;14.89;100.00;100508.91;5049243;28;20083;-87
2022/09/14 10:44:06;;;;;;;12.52;7.82;;;;;;;14.81;100.00;100518.47;5049645;28;20392;-87
2022/09/14 10:46:52;;;;;;;13.85;8.68;;;;;;;14.75;100.00;100522.38;5049878;28;20757;-86
2022/09/14 10:49:24;;;;;;;12.13;8.43;;;;;;;14.58;100.00;100512.06;5011735;28;20500;-86
2022/09/14 10:51:58;;;;;;;11.93;8.30;;;;;;;14.44;100.00;100509.28;5052601;28;20299;-87
2022/09/14 10:55:00;;;;;;;17.10;8.95;;;;;;;14.35;100.00;100498.34;5053427;28;20017;-86
2022/09/14 10:57:34;;;;;;;15.75;8.68;;;;;;;14.41;100.00;100518.75;5053432;28;20108;-88
2022/09/14 11:00:12;;;;;;;13.43;8.95;;;;;;;14.41;100.00;100509.88;5052810;28;20552;-87
2022/09/14 11:02:45;;;;;;;16.95;9.02;;;;;;;14.49;100.00;100504.66;5053454;28;20044;-87
2022/09/14 11:05:21;;;;;;;18.70;10.32;;;;;;;14.51;100.00;100507.03;5050709;28;20080;-86
2022/09/14 11:07:59;;;;;;;16.55;10.30;;;;;;;14.62;100.00;100508.47;5053355;28;20586;-87
2022/09/14 11:10:59;;;;;;;17.50;9.95;;;;;;;14.71;100.00;100511.34;5052758;28;20102;-86
2022/09/14 11:13:32;;;;;;;17.40;10.05;;;;;;;14.78;100.00;100500.22;5053309;28;20053;-87
2022/09/14 11:16:47;;;;;;;18.17;9.27;;;;;;;14.80;100.00;100506.91;5052932;28;20025;-86
2022/09/14 11:20:04;;;;;;;19.77;9.90;;;;;;;14.83;100.00;100502.81;4955113;28;20298;-87
2022/09/14 11:23:10;;;;;;;15.88;9.35;;;;;;;14.78;100.00;100498.28;5023660;28;20061;-86
2022/09/14 11:26:05;;;;;;;12.50;7.50;;;;;;;14.78;100.00;100495.59;5010729;28;20034;-86
2022/09/14 11:28:54;;;;;;;18.08;7.15;;;;;;;14.76;100.00;100502.38;5030300;28;20037;-86
2022/09/14 11:31:19;;;;;;;10.25;6.68;;;;;;;14.71;100.00;100499.75;5030691;28;20152;-87
2022/09/14 11:33:45;;;;;;;9.77;6.30;;;;;;;14.69;100.00;100495.47;5033076;28;20124;-86
2022/09/14 11:36:22;;;;;;;9.40;6.57;;;;;;;14.64;100.00;100490.13;5033242;28;20183;-87
2022/09/14 11:39:03;;;;;;;9.50;6.47;;;;;;;14.64;100.00;100489.31;5033006;28;20041;-86
2022/09/14 11:41:59;;;;;;;10.73;6.23;;;;;;;14.65;100.00;100490.94;5031546;28;20040;-87
2022/09/14 11:44:37;;;;;;;10.60;6.50;;;;;;;14.52;100.00;100489.78;5033008;28;20927;-86
2022/09/14 11:47:19;;;;;;;10.82;6.00;;;;;;;14.46;100.00;100469.34;5033763;28;20665;-86
2022/09/14 11:49:48;;;;;;;11.77;5.15;;;;;;;14.46;100.00;100490.94;5052643;28;20029;-86
2022/09/14 11:52:27;;;;;;;12.52;4.90;;;;;;;14.21;100.00;100476.75;5052256;28;20123;-86
2022/09/14 11:54:53;;;;;;;10.43;5.00;;;;;;;14.14;100.00;100482.50;5052075;28;20108;-86
2022/09/14 11:57:29;;;;;;;13.00;5.38;;;;;;;14.12;100.00;100487.38;5052415;28;20111;-86
2022/09/14 12:00:00;;;;;;;11.02;5.45;;;;;;;14.07;100.00;100480.13;5050932;28;20456;-86
2022/09/14 12:02:26;;;;;;;9.02;5.60;;;;;;;14.18;100.00;100499.66;5052371;28;20507;-85
2022/09/14 12:05:04;;;;;;;10.43;5.60;;;;;;;14.17;100.00;100508.03;5050325;28;20033;-86
2022/09/14 12:07:38;;;;;;;13.45;6.05;;;;;;;14.30;100.00;100506.53;5052515;28;20041;-86
2022/09/14 12:10:13;;;;;;;10.80;6.03;;;;;;;14.44;100.00;100506.59;5050102;28;20116;-86
2022/09/14 12:12:53;;;;;;;12.93;5.50;;;;;;;14.37;100.00;100501.56;5051913;28;20514;-87
2022/09/14 12:15:28;;;;;;;11.75;5.43;;;;;;;14.44;100.00;100495.81;5052066;28;20119;-86
2022/09/14 12:18:05;;;;;;;8.32;5.03;;;;;;;14.42;100.00;100488.03;5051566;28;20033;-87
2022/09/14 12:20:40;;;;;;;12.05;5.13;;;;;;;14.42;100.00;100482.63;5049720;28;20037;-86
2022/09/14 12:23:25;;;;;;;9.13;5.20;;;;;;;14.50;100.00;100486.56;5051882;28;20532;-86
2022/09/14 12:25:52;;;;;;;8.63;5.33;;;;;;;14.47;100.00;100479.06;5051546;28;20911;-86
2022/09/14 12:28:36;;;;;;;10.45;5.05;;;;;;;14.49;100.00;100490.34;5051757;28;20024;-86
2022/09/14 12:31:01;;;;;;;7.03;5.03;;;;;;;14.45;100.00;100495.53;5040512;22;20069;-86
2022/09/14 12:33:32;;;;;;;8.33;5.53;;;;;;;14.55;100.00;100489.19;5011240;28;20022;-86
2022/09/14 12:36:05;;;;;;;11.30;5.82;;;;;;;14.62;100.00;100500.38;5010885;28;20034;-87
2022/09/14 12:39:05;;;;;;;7.57;5.90;;;;;;;14.71;100.00;100494.38;5012187;28;20385;-87
2022/09/14 12:41:34;;;;;;;11.95;6.60;;;;;;;14.77;100.00;100490.50;5011451;28;20124;-87
2022/09/14 12:43:59;;;;;;;12.95;7.03;;;;;;;14.66;100.00;100485.22;5011370;28;20139;-86
2022/09/14 12:46:33;;;;;;;11.77;7.00;;;;;;;14.63;100.00;100485.81;5011833;28;20066;-87
2022/09/14 12:49:02;;;;;;;10.07;7.40;;;;;;;14.66;100.00;100481.75;5010581;28;20071;-86
2022/09/14 12:51:30;;;;;;;11.20;7.22;;;;;;;14.66;100.00;100484.44;5010958;28;20492;-86
2022/09/14 12:54:15;;;;;;;9.68;7.10;;;;;;;14.61;100.00;100474.50;5011363;28;20485;-87
2022/09/14 12:56:50;;;;;;;13.23;7.18;;;;;;;14.50;100.00;100459.59;5011408;28;20026;-86
2022/09/14 12:59:24;;;;;;;10.60;7.40;;;;;;;14.55;100.00;100470.31;5011822;28;20048;-87